Terminal Aerodrome Forecast
Issued by NWS

Home | Current Version | Previous Version | Text Only | Print | Product List | Glossary On
Versions: 1 2 3 4 5 6 7 8 9 10 11 12 13 14 15 16 17 18
000
FTUS46 KOTX 262329
TAFSFF
TAF
KSFF 262329Z 2700/2724 24005KT P6SM -RA BKN035 BKN050 OVC060
     FM270200 11003KT P6SM -RA OVC035
     FM270300 VRB03KT P6SM -RA SCT020 OVC030
     FM270600 VRB03KT P6SM -RA OVC021
     FM271200 20006KT P6SM -RA BKN016
     FM271500 20007G11KT P6SM VCSH SCT012 BKN025
     FM272100 20009G14KT P6SM VCSH BKN035 BKN090=

USA.gov is the U.S. government's official web portal to all federal, state and local government web resources and services.